Time;durP1;ratioP1;P1;durP2;ratioP2;P2;SDS_P1;SDS_P2;PMS_P1;PMS_P2;Temp;Humidity;BMP_temperature;BMP_pressure;BME280_temperature;BME280_humidity;BME280_pressure;Samples;Min_cycle;Max_cycle;Signal;HPM_P1;HPM_P2
2022/04/06 00:01:59;;;;;;;19.27;3.17;;;35.30;31.00;;;;;;5043084;28;20541;-63
2022/04/06 00:04:26;;;;;;;19.85;2.70;;;35.20;31.00;;;;;;5029305;28;20063;-62
2022/04/06 00:06:53;;;;;;;16.58;2.65;;;35.10;30.70;;;;;;5028004;28;20082;-62
2022/04/06 00:09:20;;;;;;;11.23;3.15;;;34.90;30.20;;;;;;5029588;28;20090;-62
2022/04/06 00:11:47;;;;;;;14.90;3.00;;;34.90;30.70;;;;;;5044096;28;20515;-62
2022/04/06 00:14:14;;;;;;;23.85;3.20;;;34.80;30.80;;;;;;5028709;28;20518;-60
2022/04/06 00:16:40;;;;;;;23.60;3.30;;;34.70;31.50;;;;;;5028011;28;20077;-61
2022/04/06 00:19:06;;;;;;;25.23;3.78;;;34.60;31.70;;;;;;5028407;28;20527;-63
2022/04/06 00:21:33;;;;;;;14.18;3.10;;;34.60;32.10;;;;;;5027150;28;20226;-64
2022/04/06 00:23:59;;;;;;;17.80;2.60;;;34.50;31.20;;;;;;5027188;28;20115;-62
2022/04/06 00:26:26;;;;;;;15.68;3.30;;;34.30;30.90;;;;;;5027752;28;20120;-61
2022/04/06 00:28:52;;;;;;;18.70;3.08;;;34.20;31.80;;;;;;5028557;28;20182;-62
2022/04/06 00:31:18;;;;;;;17.48;2.90;;;34.20;32.40;;;;;;5027903;28;20061;-61
2022/04/06 00:33:45;;;;;;;17.50;3.38;;;34.00;32.40;;;;;;5028800;28;20075;-61
2022/04/06 00:36:12;;;;;;;10.27;2.80;;;34.10;32.20;;;;;;5027391;28;20064;-61
2022/04/06 00:38:39;;;;;;;17.23;3.03;;;34.20;32.00;;;;;;5027646;28;20071;-63
2022/04/06 00:41:05;;;;;;;14.00;3.35;;;34.10;32.20;;;;;;5029804;28;20076;-61
2022/04/06 00:43:32;;;;;;;14.45;2.90;;;33.90;32.00;;;;;;5027907;28;20070;-61
2022/04/06 00:45:58;;;;;;;19.20;3.15;;;33.80;32.30;;;;;;5043292;28;20109;-62
2022/04/06 00:48:24;;;;;;;20.45;3.15;;;33.70;32.20;;;;;;5044087;28;20093;-64
2022/04/06 00:50:51;;;;;;;19.10;3.05;;;33.50;32.20;;;;;;5027351;28;20080;-63
2022/04/06 00:53:18;;;;;;;17.33;3.10;;;33.20;32.30;;;;;;5026806;28;20120;-66
2022/04/06 00:55:45;;;;;;;70.85;5.05;;;33.10;32.00;;;;;;5027900;28;20129;-64
2022/04/06 00:58:11;;;;;;;17.45;2.70;;;33.10;31.90;;;;;;5027790;28;20497;-62
2022/04/06 01:00:38;;;;;;;18.63;3.20;;;32.90;32.00;;;;;;5027502;28;20076;-66
2022/04/06 01:03:05;;;;;;;25.23;3.28;;;32.80;31.20;;;;;;5028337;28;20086;-68
2022/04/06 01:05:31;;;;;;;30.92;3.50;;;32.70;31.20;;;;;;5044058;28;20094;-64
2022/04/06 01:08:01;;;;;;;16.40;3.17;;;32.60;31.30;;;;;;5027372;28;20068;-65
2022/04/06 01:10:28;;;;;;;27.27;3.40;;;32.40;31.60;;;;;;5043065;28;20503;-65
2022/04/06 01:12:56;;;;;;;20.42;3.28;;;32.40;31.70;;;;;;5028107;28;20079;-68
2022/04/06 01:15:24;;;;;;;15.48;2.72;;;32.30;31.50;;;;;;5044349;28;20600;-63
2022/04/06 01:17:50;;;;;;;20.92;3.47;;;32.20;31.20;;;;;;5026451;28;20122;-66
2022/04/06 01:20:17;;;;;;;20.25;3.75;;;32.10;31.20;;;;;;5025889;28;20080;-68
2022/04/06 01:22:43;;;;;;;12.82;2.95;;;32.00;31.60;;;;;;5027045;28;20110;-64
2022/04/06 01:25:10;;;;;;;18.80;2.53;;;31.90;31.80;;;;;;5026800;28;20107;-64
2022/04/06 01:27:36;;;;;;;19.40;3.60;;;31.80;31.90;;;;;;5027623;28;20167;-66
2022/04/06 01:30:04;;;;;;;29.98;3.47;;;31.70;32.30;;;;;;5029488;28;20104;-67
2022/04/06 01:32:32;;;;;;;16.27;3.10;;;31.50;32.40;;;;;;5047459;28;20154;-65
2022/04/06 01:34:59;;;;;;;18.85;3.13;;;31.40;32.50;;;;;;5032408;28;20101;-65
2022/04/06 01:37:26;;;;;;;22.58;3.55;;;31.30;32.60;;;;;;5031278;28;20228;-64
2022/04/06 01:39:52;;;;;;;18.77;3.05;;;31.10;33.00;;;;;;5031041;28;20081;-64
2022/04/06 01:42:20;;;;;;;21.08;3.85;;;30.90;33.40;;;;;;5031449;28;20069;-66
2022/04/06 01:44:48;;;;;;;27.38;2.67;;;30.80;33.80;;;;;;5032410;28;20064;-66
2022/04/06 01:47:17;;;;;;;35.13;4.47;;;30.80;33.90;;;;;;5030502;28;20108;-64
2022/04/06 01:52:28;;;;;;;24.17;3.40;;;30.60;34.20;;;;;;5032293;28;20112;-64
2022/04/06 01:54:56;;;;;;;20.60;4.18;;;30.50;34.40;;;;;;5030469;28;20188;-64
2022/04/06 01:57:24;;;;;;;30.30;4.15;;;30.40;34.60;;;;;;5029921;28;20077;-65
2022/04/06 01:59:51;;;;;;;21.23;3.50;;;30.30;34.90;;;;;;5030719;28;20069;-66
2022/04/06 02:02:20;;;;;;;27.83;3.40;;;30.20;35.20;;;;;;5014232;28;20156;-66
2022/04/06 02:04:47;;;;;;;20.23;4.32;;;30.10;35.60;;;;;;5026996;28;20069;-65
2022/04/06 02:07:16;;;;;;;23.70;3.80;;;29.90;36.00;;;;;;5031225;28;21357;-66
2022/04/06 02:09:42;;;;;;;30.55;4.50;;;29.90;36.20;;;;;;5030372;28;20425;-67
2022/04/06 02:12:11;;;;;;;27.20;3.88;;;29.80;36.50;;;;;;5031518;28;20800;-66
2022/04/06 02:14:39;;;;;;;27.65;4.00;;;29.70;36.70;;;;;;5031249;28;20073;-66
2022/04/06 02:17:07;;;;;;;27.35;4.35;;;29.60;36.90;;;;;;5030957;28;20069;-67
2022/04/06 02:19:36;;;;;;;43.78;6.28;;;29.60;37.20;;;;;;5030342;28;20083;-64
2022/04/06 02:22:05;;;;;;;27.95;4.18;;;29.50;37.60;;;;;;5042746;28;20135;-65
2022/04/06 02:24:33;;;;;;;34.63;4.78;;;29.40;38.00;;;;;;5029495;28;20084;-64
2022/04/06 02:27:00;;;;;;;45.70;5.20;;;29.30;38.50;;;;;;5027905;28;20541;-64
2022/04/06 02:29:26;;;;;;;96.03;9.85;;;29.20;39.00;;;;;;5031333;28;20100;-67
2022/04/06 02:31:53;;;;;;;40.38;5.32;;;29.20;39.50;;;;;;5031118;28;20451;-67
2022/04/06 02:34:20;;;;;;;23.67;4.97;;;29.10;40.00;;;;;;5017676;28;20083;-67
2022/04/06 02:36:46;;;;;;;22.02;3.20;;;28.90;40.30;;;;;;5031246;28;20130;-68
2022/04/06 02:39:12;;;;;;;22.17;4.43;;;28.90;40.70;;;;;;5013989;28;20097;-69
2022/04/06 02:41:39;;;;;;;27.35;4.78;;;28.80;41.00;;;;;;5027110;28;20073;-71
2022/04/06 02:44:05;;;;;;;25.40;4.50;;;28.70;41.30;;;;;;5014250;28;20678;-67
2022/04/06 02:46:32;;;;;;;30.13;4.40;;;28.60;41.30;;;;;;5013186;28;20108;-66
2022/04/06 02:48:59;;;;;;;24.30;3.80;;;28.60;41.20;;;;;;5028865;28;20490;-71
2022/04/06 02:51:25;;;;;;;25.00;4.38;;;28.40;41.00;;;;;;5030673;28;20065;-70
2022/04/06 02:53:52;;;;;;;29.05;5.32;;;28.40;41.20;;;;;;5030941;28;20072;-67
2022/04/06 02:56:18;;;;;;;26.73;4.30;;;28.30;41.80;;;;;;5012859;28;20539;-72
2022/04/06 02:58:45;;;;;;;24.92;4.47;;;28.10;40.90;;;;;;5014191;28;20073;-69
2022/04/06 03:01:12;;;;;;;27.17;4.00;;;28.10;41.00;;;;;;5013756;28;20099;-69
2022/04/06 03:03:38;;;;;;;21.15;5.00;;;28.00;41.00;;;;;;5017099;28;20528;-69
2022/04/06 03:06:07;;;;;;;24.10;5.03;;;27.90;41.00;;;;;;5032233;28;20520;-71
2022/04/06 03:08:34;;;;;;;32.92;5.47;;;27.80;40.80;;;;;;5012298;28;20116;-69
2022/04/06 03:11:00;;;;;;;24.20;5.03;;;27.70;40.80;;;;;;5036191;28;20073;-70
2022/04/06 03:13:27;;;;;;;17.45;4.43;;;27.70;40.90;;;;;;5013889;28;20095;-71
2022/04/06 03:15:53;;;;;;;24.92;5.55;;;27.50;40.80;;;;;;5016756;28;20123;-69
2022/04/06 03:18:20;;;;;;;22.70;5.40;;;27.50;40.90;;;;;;5013560;28;20562;-68
2022/04/06 03:20:47;;;;;;;28.73;5.25;;;27.50;40.80;;;;;;5013195;28;20815;-72
2022/04/06 03:23:17;;;;;;;14.02;4.03;;;27.40;40.60;;;;;;5041954;28;20105;-70
2022/04/06 03:25:44;;;;;;;30.83;4.55;;;27.40;40.60;;;;;;5027847;28;20073;-71
2022/04/06 03:28:11;;;;;;;38.40;5.10;;;27.30;40.90;;;;;;5028216;28;20503;-67
2022/04/06 03:30:37;;;;;;;19.27;4.38;;;27.20;40.90;;;;;;5029176;28;20168;-68
2022/04/06 03:33:05;;;;;;;32.35;4.90;;;27.10;41.00;;;;;;5045006;28;20154;-70
2022/04/06 03:35:32;;;;;;;26.88;5.35;;;27.10;41.30;;;;;;5030248;28;20069;-68
2022/04/06 03:37:59;;;;;;;23.40;4.82;;;27.00;41.50;;;;;;5030123;28;20163;-70
2022/04/06 03:40:25;;;;;;;20.83;3.83;;;27.00;41.60;;;;;;5029598;28;20138;-69
2022/04/06 03:42:51;;;;;;;35.70;3.90;;;26.90;41.90;;;;;;5044703;28;20080;-69
2022/04/06 03:45:18;;;;;;;26.13;4.10;;;26.90;42.10;;;;;;5029818;28;20076;-67
2022/04/06 03:47:44;;;;;;;24.35;4.40;;;26.80;42.40;;;;;;5044832;28;20583;-70
2022/04/06 03:50:11;;;;;;;15.93;3.00;;;26.70;42.50;;;;;;5028056;28;20464;-69
2022/04/06 03:52:38;;;;;;;22.25;3.53;;;26.70;42.70;;;;;;5027459;28;20073;-70
2022/04/06 03:55:07;;;;;;;25.70;5.05;;;26.60;42.70;;;;;;5028945;28;20093;-70
2022/04/06 03:57:34;;;;;;;24.27;4.15;;;26.60;43.00;;;;;;5029419;28;20069;-70
2022/04/06 04:00:04;;;;;;;22.50;4.68;;;26.50;43.20;;;;;;5044839;28;20142;-71
2022/04/06 04:02:31;;;;;;;29.05;4.93;;;26.40;43.40;;;;;;5030018;28;20107;-71
2022/04/06 04:04:58;;;;;;;27.85;4.80;;;26.40;43.60;;;;;;5030385;28;20464;-69
2022/04/06 04:07:25;;;;;;;47.45;5.95;;;26.40;43.80;;;;;;5028550;28;20163;-71
2022/04/06 04:09:52;;;;;;;22.35;4.68;;;26.40;43.90;;;;;;5027303;28;20777;-71
2022/04/06 04:12:18;;;;;;;24.38;5.10;;;26.20;43.80;;;;;;5025931;28;20075;-70
2022/04/06 04:14:45;;;;;;;24.80;4.55;;;26.20;43.90;;;;;;5028961;28;20168;-70
2022/04/06 04:17:12;;;;;;;25.05;5.32;;;26.20;44.10;;;;;;5027688;28;20073;-72
2022/04/06 04:19:38;;;;;;;15.50;4.10;;;26.10;44.10;;;;;;5027720;28;20097;-68
2022/04/06 04:22:05;;;;;;;13.00;4.20;;;26.10;44.20;;;;;;5027524;28;20112;-68
2022/04/06 04:24:31;;;;;;;22.60;3.83;;;26.00;44.30;;;;;;5043302;28;20080;-69
2022/04/06 04:26:59;;;;;;;27.77;4.30;;;26.00;44.40;;;;;;5025945;28;20077;-69
2022/04/06 04:29:25;;;;;;;23.88;4.43;;;26.00;44.70;;;;;;5026905;28;20122;-71
2022/04/06 04:31:52;;;;;;;21.63;3.95;;;25.90;44.60;;;;;;5027251;28;20097;-69
2022/04/06 04:34:18;;;;;;;17.23;4.45;;;25.80;44.80;;;;;;5028117;28;20065;-71
2022/04/06 04:36:44;;;;;;;17.75;4.25;;;25.80;45.10;;;;;;5028748;28;20551;-71
2022/04/06 04:39:11;;;;;;;20.60;3.95;;;25.80;45.40;;;;;;5027063;28;20097;-69
2022/04/06 04:41:38;;;;;;;22.40;4.32;;;25.80;45.80;;;;;;5026772;28;20074;-70
2022/04/06 04:44:04;;;;;;;14.80;3.63;;;25.70;46.10;;;;;;5027369;28;20081;-69
2022/04/06 04:46:31;;;;;;;20.80;4.20;;;25.60;46.50;;;;;;5027922;28;20085;-68
2022/04/06 04:48:58;;;;;;;22.92;4.60;;;25.50;46.80;;;;;;5028367;28;20091;-69
2022/04/06 04:51:24;;;;;;;17.83;4.25;;;25.50;47.00;;;;;;5028005;28;20066;-69
2022/04/06 04:53:51;;;;;;;20.98;4.03;;;25.50;47.20;;;;;;5026724;28;20208;-70
2022/04/06 04:56:18;;;;;;;23.20;4.60;;;25.40;47.30;;;;;;5027949;28;20570;-68
2022/04/06 04:58:44;;;;;;;22.17;4.45;;;25.30;47.50;;;;;;5042654;28;20081;-69
2022/04/06 05:01:11;;;;;;;26.02;4.43;;;25.30;47.80;;;;;;5027125;28;20072;-67
2022/04/06 05:03:37;;;;;;;19.52;3.95;;;25.20;48.10;;;;;;5027219;28;20069;-66
2022/04/06 05:06:06;;;;;;;21.10;4.47;;;25.20;48.60;;;;;;5031940;28;20100;-73
2022/04/06 05:08:33;;;;;;;20.05;4.25;;;25.10;48.80;;;;;;5031326;28;20154;-67
2022/04/06 05:10:59;;;;;;;20.75;4.55;;;25.00;49.30;;;;;;5031399;28;20084;-65
2022/04/06 05:13:26;;;;;;;21.23;4.10;;;25.10;49.40;;;;;;5030837;28;20475;-63
2022/04/06 05:15:52;;;;;;;24.58;4.75;;;25.40;49.40;;;;;;5029547;28;20066;-63
2022/04/06 05:18:19;;;;;;;25.33;4.53;;;25.50;49.20;;;;;;5013584;28;20525;-64
2022/04/06 05:20:45;;;;;;;23.83;4.60;;;25.50;49.10;;;;;;5013529;28;20090;-66
2022/04/06 05:23:12;;;;;;;21.20;4.68;;;25.70;49.00;;;;;;5031533;28;20832;-67
2022/04/06 05:25:38;;;;;;;29.55;4.65;;;25.60;49.10;;;;;;5046953;28;20123;-66
2022/04/06 05:28:04;;;;;;;20.30;4.32;;;25.70;49.10;;;;;;5026650;28;20077;-66
2022/04/06 05:30:32;;;;;;;29.88;5.38;;;25.70;49.20;;;;;;5029842;28;20116;-65
2022/04/06 05:32:59;;;;;;;20.83;4.53;;;25.70;49.40;;;;;;5030533;28;20100;-64
2022/04/06 05:35:26;;;;;;;18.48;4.53;;;25.50;50.00;;;;;;5032011;28;20159;-67
2022/04/06 05:37:56;;;;;;;24.02;5.28;;;25.70;50.20;;;;;;5031654;28;20154;-64
2022/04/06 05:40:22;;;;;;;27.35;5.85;;;25.60;50.20;;;;;;5029541;28;20073;-64
2022/04/06 05:42:49;;;;;;;29.67;6.72;;;25.70;50.40;;;;;;5044619;28;20155;-67
2022/04/06 05:45:15;;;;;;;41.15;7.00;;;25.60;50.40;;;;;;5049526;28;20073;-66
2022/04/06 05:47:42;;;;;;;21.48;6.15;;;25.60;50.90;;;;;;5031502;28;20072;-64
2022/04/06 05:50:10;;;;;;;16.67;5.18;;;25.30;51.30;;;;;;5045997;28;20135;-68
2022/04/06 05:52:36;;;;;;;21.38;5.55;;;25.40;51.70;;;;;;5030402;28;20114;-64
2022/04/06 05:55:04;;;;;;;18.98;5.15;;;25.20;51.90;;;;;;5046622;28;20176;-66
2022/04/06 05:57:30;;;;;;;20.77;4.70;;;25.20;52.20;;;;;;5045413;28;20271;-65
2022/04/06 05:59:57;;;;;;;26.23;7.32;;;25.30;52.20;;;;;;5030434;28;21601;-65
2022/04/06 06:02:26;;;;;;;22.45;6.18;;;25.10;52.10;;;;;;5031336;28;20104;-65
2022/04/06 06:04:53;;;;;;;28.58;6.32;;;25.20;52.70;;;;;;5046809;28;20078;-65
2022/04/06 06:07:20;;;;;;;24.80;5.78;;;25.10;52.80;;;;;;5029529;28;20099;-65
2022/04/06 06:09:47;;;;;;;20.35;5.00;;;24.80;53.30;;;;;;5029405;28;20085;-65
2022/04/06 06:12:13;;;;;;;26.05;5.35;;;24.70;54.20;;;;;;5029067;28;20580;-64
2022/04/06 06:14:40;;;;;;;22.85;4.10;;;24.80;54.20;;;;;;5045936;28;20173;-64
2022/04/06 06:17:06;;;;;;;19.52;4.22;;;24.80;54.40;;;;;;5028651;28;20074;-65
2022/04/06 06:19:33;;;;;;;16.75;4.47;;;24.40;55.00;;;;;;5046115;28;20169;-67
2022/04/06 06:21:59;;;;;;;22.73;4.57;;;24.50;55.40;;;;;;5029461;28;20116;-65
2022/04/06 06:24:26;;;;;;;19.20;4.60;;;24.60;55.40;;;;;;5062345;28;20119;-64
2022/04/06 06:26:53;;;;;;;28.60;4.50;;;24.50;55.40;;;;;;5028999;28;20440;-66
2022/04/06 06:29:20;;;;;;;20.63;4.93;;;24.40;55.80;;;;;;5028039;28;20088;-64
2022/04/06 06:31:46;;;;;;;18.58;4.10;;;24.30;56.30;;;;;;5029911;28;20073;-63
2022/04/06 06:34:13;;;;;;;19.75;4.20;;;24.20;57.00;;;;;;5029104;28;20444;-64
2022/04/06 06:36:39;;;;;;;18.92;3.90;;;24.30;57.20;;;;;;5030807;28;20086;-64
2022/04/06 06:39:05;;;;;;;21.13;4.65;;;24.10;57.10;;;;;;5062080;28;20448;-65
2022/04/06 06:41:34;;;;;;;19.90;4.55;;;24.00;57.70;;;;;;5028954;28;20541;-64
2022/04/06 06:44:01;;;;;;;16.80;4.38;;;24.00;58.10;;;;;;5029599;28;20595;-63
2022/04/06 06:46:30;;;;;;;21.15;4.40;;;24.00;58.30;;;;;;5029645;28;20487;-63
2022/04/06 06:49:02;;;;;;;16.52;4.35;;;23.90;58.50;;;;;;5029621;28;20505;-64
2022/04/06 06:51:32;;;;;;;16.17;4.18;;;23.70;59.00;;;;;;5029590;28;20175;-63
2022/04/06 06:54:00;;;;;;;21.38;4.05;;;23.80;59.30;;;;;;5045516;28;20077;-63
2022/04/06 06:56:27;;;;;;;19.67;4.40;;;23.60;59.50;;;;;;5029460;28;20564;-63
2022/04/06 06:58:54;;;;;;;30.00;5.13;;;23.60;60.00;;;;;;5028787;28;20128;-63
2022/04/06 07:01:20;;;;;;;24.50;4.88;;;23.50;60.50;;;;;;5029109;28;20085;-63
2022/04/06 07:03:47;;;;;;;26.88;4.72;;;23.40;60.90;;;;;;5044264;28;20081;-64
2022/04/06 07:06:14;;;;;;;20.88;4.47;;;23.50;61.10;;;;;;5029702;28;20074;-63
2022/04/06 07:08:41;;;;;;;20.52;4.47;;;23.40;61.60;;;;;;5028121;28;20098;-63
2022/04/06 07:11:07;;;;;;;18.45;4.85;;;23.40;61.80;;;;;;5028155;28;20073;-64
2022/04/06 07:13:34;;;;;;;24.63;4.15;;;23.30;61.90;;;;;;5027981;28;21363;-65
2022/04/06 07:16:01;;;;;;;16.73;4.13;;;23.40;62.30;;;;;;5028291;28;20074;-63
2022/04/06 07:18:28;;;;;;;19.33;4.10;;;23.30;62.40;;;;;;5045492;28;20465;-63
2022/04/06 07:20:54;;;;;;;21.02;4.10;;;23.20;63.80;;;;;;5029047;28;20078;-65
2022/04/06 07:23:21;;;;;;;22.95;4.22;;;23.30;63.20;;;;;;5044737;28;20125;-63
2022/04/06 07:25:47;;;;;;;18.10;4.25;;;23.20;63.00;;;;;;5028915;28;20112;-63
2022/04/06 07:28:13;;;;;;;27.98;5.00;;;23.10;63.40;;;;;;5028211;28;20112;-64
2022/04/06 07:30:40;;;;;;;17.95;4.13;;;23.10;63.80;;;;;;5042539;28;20082;-65
2022/04/06 07:33:09;;;;;;;20.38;4.57;;;23.00;64.20;;;;;;5044125;28;20113;-63
2022/04/06 07:35:37;;;;;;;21.20;4.35;;;22.90;64.80;;;;;;5044871;28;20090;-64
2022/04/06 07:38:03;;;;;;;19.38;4.40;;;22.90;65.30;;;;;;5027271;28;20078;-62
2022/04/06 07:40:30;;;;;;;18.15;4.13;;;22.90;65.50;;;;;;5028070;28;20109;-62
2022/04/06 07:42:56;;;;;;;19.15;4.40;;;22.80;65.80;;;;;;5044413;28;20077;-65
2022/04/06 07:45:24;;;;;;;16.83;4.30;;;22.80;66.10;;;;;;5028585;28;20077;-62
2022/04/06 07:47:52;;;;;;;17.90;4.45;;;22.70;66.60;;;;;;5028170;28;20094;-65
2022/04/06 07:50:20;;;;;;;17.40;4.40;;;22.80;66.50;;;;;;5028989;28;20090;-63
2022/04/06 07:52:47;;;;;;;24.95;4.32;;;22.70;66.70;;;;;;5043975;28;20538;-63
2022/04/06 07:55:14;;;;;;;21.10;4.60;;;22.70;67.10;;;;;;5028258;28;20086;-63
2022/04/06 07:57:41;;;;;;;18.38;4.35;;;22.70;67.00;;;;;;5044291;28;20081;-63
2022/04/06 08:00:11;;;;;;;17.10;4.40;;;22.70;67.30;;;;;;5044592;28;20074;-66
2022/04/06 08:02:37;;;;;;;20.05;4.68;;;22.60;67.20;;;;;;5029900;28;20161;-63
2022/04/06 08:05:05;;;;;;;18.15;4.50;;;22.70;67.60;;;;;;5044070;28;20534;-64
2022/04/06 08:07:32;;;;;;;19.25;4.97;;;22.50;67.90;;;;;;5028036;28;20124;-66
2022/04/06 08:09:59;;;;;;;21.13;4.88;;;22.50;68.40;;;;;;5043412;28;20136;-62
2022/04/06 08:12:25;;;;;;;19.42;5.20;;;22.50;69.00;;;;;;5027860;28;20149;-66
2022/04/06 08:14:52;;;;;;;22.15;4.50;;;22.30;68.40;;;;;;5027657;28;20074;-63
2022/04/06 08:17:18;;;;;;;15.38;4.40;;;22.30;69.50;;;;;;5043405;28;20510;-64
2022/04/06 08:19:44;;;;;;;21.83;4.60;;;22.30;69.30;;;;;;5043400;28;20108;-64
2022/04/06 08:22:11;;;;;;;18.40;4.60;;;22.30;69.50;;;;;;5027378;28;20113;-64
2022/04/06 08:24:37;;;;;;;23.20;4.82;;;22.30;69.10;;;;;;5010930;28;20169;-65
2022/04/06 08:27:04;;;;;;;20.33;5.38;;;22.20;69.10;;;;;;5027686;28;20082;-65
2022/04/06 08:29:30;;;;;;;25.45;5.07;;;22.20;69.00;;;;;;5010960;28;20102;-63
2022/04/06 08:31:57;;;;;;;18.67;3.92;;;22.20;69.00;;;;;;5026203;28;20124;-64
2022/04/06 08:34:23;;;;;;;25.08;4.88;;;22.20;68.70;;;;;;5026770;28;20077;-66
2022/04/06 08:36:49;;;;;;;22.08;4.43;;;22.20;68.50;;;;;;5028359;28;20070;-64
2022/04/06 08:39:16;;;;;;;20.58;4.32;;;22.30;68.40;;;;;;5026190;28;20082;-66
2022/04/06 08:41:43;;;;;;;19.92;4.35;;;22.20;68.30;;;;;;5060371;28;20123;-63
2022/04/06 08:44:09;;;;;;;12.55;4.15;;;22.10;68.20;;;;;;5026856;28;20089;-64
2022/04/06 08:46:38;;;;;;;21.65;4.70;;;22.00;68.30;;;;;;5027437;28;20081;-65
2022/04/06 08:49:05;;;;;;;14.73;4.40;;;22.10;68.40;;;;;;5042851;28;20097;-64
2022/04/06 08:51:36;;;;;;;18.73;4.80;;;22.10;68.10;;;;;;5026970;28;20073;-65
2022/04/06 08:54:04;;;;;;;22.05;5.15;;;22.10;67.60;;;;;;5026073;28;20124;-64
2022/04/06 08:56:30;;;;;;;13.45;4.35;;;22.00;67.30;;;;;;5042829;28;20495;-65
2022/04/06 08:58:58;;;;;;;17.80;4.30;;;21.90;67.40;;;;;;5027638;28;20577;-64
2022/04/06 09:01:25;;;;;;;18.48;5.10;;;22.00;68.10;;;;;;5043017;28;20075;-64
2022/04/06 09:03:51;;;;;;;17.95;4.60;;;21.90;67.50;;;;;;5028012;28;20100;-64
2022/04/06 09:06:19;;;;;;;21.17;4.70;;;21.90;67.10;;;;;;5028345;28;20112;-64
2022/04/06 09:08:47;;;;;;;16.48;4.65;;;21.90;67.20;;;;;;5026652;28;20097;-64
2022/04/06 09:11:17;;;;;;;18.95;4.47;;;21.80;67.10;;;;;;5027943;28;20075;-64
2022/04/06 09:13:46;;;;;;;20.02;5.13;;;21.90;67.20;;;;;;5027355;23;20788;-63
2022/04/06 09:16:15;;;;;;;26.35;9.30;;;21.70;67.40;;;;;;4987058;28;20498;-66
2022/04/06 09:18:48;;;;;;;27.40;10.65;;;21.70;67.60;;;;;;4986801;28;20076;-63
2022/04/06 09:21:19;;;;;;;29.88;12.32;;;21.60;67.70;;;;;;4987110;28;20519;-65
2022/04/06 09:23:49;;;;;;;26.75;11.23;;;21.60;68.10;;;;;;4989063;28;20102;-67
2022/04/06 09:26:20;;;;;;;27.80;11.75;;;21.70;67.50;;;;;;4970666;28;20546;-64
2022/04/06 09:28:49;;;;;;;27.75;8.45;;;21.70;67.50;;;;;;4987313;28;20551;-63
2022/04/06 09:31:17;;;;;;;24.42;6.85;;;21.70;67.60;;;;;;4984246;28;20442;-67
2022/04/06 09:33:56;;;;;;;22.52;6.10;;;21.60;67.60;;;;;;4985270;28;20071;-63
2022/04/06 09:36:22;;;;;;;19.60;6.15;;;21.60;67.60;;;;;;4987672;28;20087;-64
2022/04/06 09:38:51;;;;;;;23.83;6.25;;;21.60;67.60;;;;;;4985948;28;20093;-64
2022/04/06 09:41:19;;;;;;;22.63;6.32;;;21.70;67.60;;;;;;4986340;28;20622;-62
2022/04/06 09:43:47;;;;;;;15.95;5.30;;;21.70;67.30;;;;;;4986254;28;20090;-66
2022/04/06 09:49:14;;;;;;;13.25;4.32;;;21.60;67.60;;;;;;4987461;28;20101;-63
2022/04/06 09:51:51;;;;;;;23.33;5.45;;;21.70;67.10;;;;;;4990027;28;20930;-64
2022/04/06 09:54:19;;;;;;;25.02;4.82;;;21.60;66.90;;;;;;4990111;28;20170;-65
2022/04/06 09:56:46;;;;;;;19.67;5.03;;;21.60;66.90;;;;;;4991134;28;20090;-64
2022/04/06 09:59:14;;;;;;;17.80;5.10;;;21.50;66.80;;;;;;4990120;28;20214;-66
2022/04/06 10:01:47;;;;;;;22.00;4.72;;;21.40;66.90;;;;;;4990778;28;20169;-63
2022/04/06 10:04:17;;;;;;;19.60;4.35;;;21.40;67.20;;;;;;4988747;28;20098;-64
2022/04/06 10:06:44;;;;;;;17.75;4.40;;;21.30;67.40;;;;;;4992135;28;20613;-67
2022/04/06 10:09:15;;;;;;;19.83;4.25;;;21.30;67.20;;;;;;4989381;28;20093;-62
2022/04/06 10:11:43;;;;;;;25.50;4.63;;;21.20;67.10;;;;;;4991218;28;20079;-65
2022/04/06 10:14:11;;;;;;;14.73;3.85;;;21.20;67.40;;;;;;4990028;28;20478;-63
2022/04/06 10:16:38;;;;;;;17.52;4.47;;;21.10;67.70;;;;;;4991194;28;20454;-64
2022/04/06 10:19:13;;;;;;;20.13;4.53;;;21.10;68.00;;;;;;4941919;28;20085;-63
2022/04/06 10:21:56;;;;;;;17.38;4.32;;;21.10;68.20;;;;;;4957145;28;20079;-63
2022/04/06 10:24:43;;;;;;;20.40;4.10;;;21.10;68.60;;;;;;4973025;28;20091;-65
2022/04/06 10:27:16;;;;;;;15.40;4.70;;;21.00;68.80;;;;;;4990289;28;20111;-64
2022/04/06 10:30:09;;;;;;;18.55;4.32;;;21.00;69.00;;;;;;4990132;28;20087;-64
2022/04/06 10:32:39;;;;;;;34.22;5.22;;;20.90;69.00;;;;;;4970247;28;20129;-63
2022/04/06 10:35:31;;;;;;;15.32;4.38;;;20.80;69.80;;;;;;4972817;28;20442;-63
2022/04/06 10:37:58;;;;;;;18.13;4.75;;;20.60;70.50;;;;;;4972663;28;20081;-66
2022/04/06 10:40:32;;;;;;;17.13;4.50;;;20.60;70.90;;;;;;4973401;28;20082;-64
2022/04/06 10:42:58;;;;;;;22.83;4.85;;;20.60;70.90;;;;;;4989822;28;20100;-66
2022/04/06 10:45:28;;;;;;;20.13;4.38;;;20.60;70.90;;;;;;4972357;28;20090;-65
2022/04/06 10:48:14;;;;;;;19.40;4.85;;;20.60;71.00;;;;;;4973395;28;20117;-64
2022/04/06 10:50:46;;;;;;;22.00;5.37;;;20.70;71.30;;;;;;4974325;28;20538;-63
2022/04/06 10:53:21;;;;;;;33.83;5.88;;;20.70;71.80;;;;;;4990404;28;20075;-63
2022/04/06 10:56:02;;;;;;;21.85;6.05;;;20.70;72.00;;;;;;4973177;28;20573;-66
2022/04/06 10:58:48;;;;;;;22.35;5.38;;;20.60;71.30;;;;;;4990059;28;20078;-64
2022/04/06 11:01:17;;;;;;;21.52;5.47;;;20.60;71.60;;;;;;4970813;28;20077;-66
2022/04/06 11:04:04;;;;;;;19.80;4.70;;;20.60;72.30;;;;;;4972313;28;20106;-65
2022/04/06 11:07:03;;;;;;;23.10;5.53;;;20.60;71.60;;;;;;4971527;28;20075;-65
2022/04/06 11:12:28;;;;;;;20.30;5.10;;;20.50;72.50;;;;;;4971879;28;20590;-67
2022/04/06 11:15:01;;;;;;;22.00;5.15;;;20.50;71.70;;;;;;4984793;28;20216;-64
2022/04/06 11:17:32;;;;;;;21.38;5.43;;;20.40;71.70;;;;;;4986879;28;20097;-64
2022/04/06 11:20:07;;;;;;;17.85;5.57;;;20.50;72.00;;;;;;4988957;28;20423;-65
2022/04/06 11:22:34;;;;;;;22.23;6.40;;;20.40;72.00;;;;;;4972672;28;20505;-65
2022/04/06 11:25:01;;;;;;;18.77;5.00;;;20.30;71.50;;;;;;4988821;28;20173;-65
2022/04/06 11:27:32;;;;;;;24.83;6.85;;;20.30;71.50;;;;;;4987785;28;20165;-65
2022/04/06 11:30:04;;;;;;;28.85;6.53;;;20.30;71.40;;;;;;4987778;28;20091;-64
2022/04/06 11:32:32;;;;;;;26.60;6.63;;;20.30;72.60;;;;;;4990556;28;20193;-64
2022/04/06 11:35:05;;;;;;;26.63;7.70;;;20.30;72.00;;;;;;4986765;28;20079;-65
2022/04/06 11:37:53;;;;;;;27.65;7.60;;;20.30;71.70;;;;;;4990072;28;20075;-66
2022/04/06 11:40:20;;;;;;;;;;;20.20;71.90;;;;;;4986950;28;20094;-66
2022/04/06 11:42:47;;;;;;;;;;;20.20;71.40;;;;;;4989039;28;20009;-66
2022/04/06 11:45:23;;;;;;;24.38;6.55;;;20.10;71.10;;;;;;4989397;28;19965;-66
2022/04/06 11:47:58;;;;;;;21.48;5.70;;;20.00;71.30;;;;;;4989318;28;20152;-64
2022/04/06 11:50:31;;;;;;;20.52;5.38;;;20.00;71.30;;;;;;4987707;28;20542;-66
2022/04/06 11:53:06;;;;;;;21.63;5.88;;;20.00;71.20;;;;;;4987712;28;20086;-64
2022/04/06 11:55:53;;;;;;;22.05;5.15;;;20.00;71.50;;;;;;4986955;28;20098;-64
2022/04/06 11:58:29;;;;;;;;;;;20.00;71.30;;;;;;4987935;28;20079;-63
2022/04/06 12:01:17;;;;;;;15.77;4.90;;;19.90;71.20;;;;;;4988134;28;19973;-64
2022/04/06 12:03:46;;;;;;;17.58;4.93;;;19.90;72.20;;;;;;5016564;28;20082;-64
2022/04/06 12:06:15;;;;;;;15.80;4.72;;;19.90;72.00;;;;;;4989701;28;20075;-64
2022/04/06 12:08:46;;;;;;;22.02;6.00;;;19.80;72.20;;;;;;4991004;28;20103;-67
2022/04/06 12:11:13;;;;;;;17.42;5.78;;;19.80;72.40;;;;;;4988499;28;20071;-68
2022/04/06 12:13:41;;;;;;;24.27;6.65;;;19.80;73.20;;;;;;4987552;28;20182;-67
2022/04/06 12:16:08;;;;;;;26.52;6.05;;;19.80;73.40;;;;;;4988073;28;20099;-66
2022/04/06 12:18:39;;;;;;;22.45;6.82;;;19.70;73.30;;;;;;4986850;28;20075;-68
2022/04/06 12:21:22;;;;;;;31.10;6.95;;;19.70;73.20;;;;;;4986289;28;20098;-64
2022/04/06 12:23:49;;;;;;;25.38;6.22;;;19.70;73.60;;;;;;4987609;28;20600;-64
2022/04/06 12:26:15;;;;;;;24.63;6.50;;;19.60;73.10;;;;;;4987547;28;20486;-67
2022/04/06 12:28:45;;;;;;;27.88;6.20;;;19.60;72.90;;;;;;4988734;28;20102;-65
2022/04/06 12:31:11;;;;;;;25.73;6.05;;;19.60;73.10;;;;;;4986704;28;20170;-63
2022/04/06 12:33:39;;;;;;;22.10;6.28;;;19.60;73.10;;;;;;4988236;28;20083;-64
2022/04/06 12:36:08;;;;;;;23.48;6.32;;;19.60;73.00;;;;;;4985774;28;20117;-64
2022/04/06 12:38:36;;;;;;;27.65;6.15;;;19.60;73.10;;;;;;5007366;28;20082;-63
2022/04/06 12:41:07;;;;;;;20.55;6.20;;;19.50;73.70;;;;;;4988008;28;20078;-64
2022/04/06 12:43:37;;;;;;;17.67;5.20;;;19.50;73.70;;;;;;4986968;28;20082;-66
2022/04/06 12:46:04;;;;;;;23.70;5.55;;;19.50;73.90;;;;;;4987036;28;20083;-69
2022/04/06 12:48:30;;;;;;;22.17;5.90;;;19.50;73.60;;;;;;4987430;28;20185;-64
2022/04/06 12:50:57;;;;;;;20.45;5.32;;;19.50;73.40;;;;;;5005697;28;20095;-64
2022/04/06 12:53:24;;;;;;;20.85;6.00;;;19.40;73.10;;;;;;4987384;28;20074;-63